sensor_id;sensor_type;location;lat;lon;timestamp;pressure;altitude;pressure_sealevel;temperature;humidity
72857;BME280;62742;52.136;4.500;2023-12-07T00:00:09;102066.97;;;0.81;100.00
72857;BME280;62742;52.136;4.500;2023-12-07T00:02:36;102065.09;;;0.77;100.00
72857;BME280;62742;52.136;4.500;2023-12-07T00:05:03;102060.66;;;0.74;100.00
72857;BME280;62742;52.136;4.500;2023-12-07T00:07:30;102057.38;;;0.98;100.00
72857;BME280;62742;52.136;4.500;2023-12-07T00:09:56;102063.41;;;1.18;100.00
72857;BME280;62742;52.136;4.500;2023-12-07T00:12:23;102056.72;;;1.23;100.00
72857;BME280;62742;52.136;4.500;2023-12-07T00:14:49;102045.09;;;1.14;100.00
72857;BME280;62742;52.136;4.500;2023-12-07T00:17:15;102050.34;;;0.96;100.00
72857;BME280;62742;52.136;4.500;2023-12-07T00:19:42;102050.59;;;0.81;100.00
72857;BME280;62742;52.136;4.500;2023-12-07T00:22:08;102051.19;;;0.75;100.00
72857;BME280;62742;52.136;4.500;2023-12-07T00:24:35;102050.50;;;0.79;100.00
72857;BME280;62742;52.136;4.500;2023-12-07T00:27:01;102048.06;;;0.63;100.00
72857;BME280;62742;52.136;4.500;2023-12-07T00:29:27;102052.81;;;0.53;100.00
72857;BME280;62742;52.136;4.500;2023-12-07T00:31:53;102050.09;;;0.50;100.00
72857;BME280;62742;52.136;4.500;2023-12-07T00:34:20;102042.41;;;0.52;100.00
72857;BME280;62742;52.136;4.500;2023-12-07T00:36:46;102043.56;;;0.59;100.00
72857;BME280;62742;52.136;4.500;2023-12-07T00:39:12;102046.81;;;0.54;100.00
72857;BME280;62742;52.136;4.500;2023-12-07T00:41:39;102045.81;;;0.51;100.00
72857;BME280;62742;52.136;4.500;2023-12-07T00:44:05;102050.44;;;0.39;100.00
72857;BME280;62742;52.136;4.500;2023-12-07T00:46:31;102047.50;;;0.31;100.00
72857;BME280;62742;52.136;4.500;2023-12-07T00:48:58;102055.13;;;0.28;100.00
72857;BME280;62742;52.136;4.500;2023-12-07T00:51:24;102056.94;;;0.30;100.00
72857;BME280;62742;52.136;4.500;2023-12-07T00:53:51;102056.69;;;0.24;100.00
72857;BME280;62742;52.136;4.500;2023-12-07T00:56:17;102050.03;;;0.11;100.00
72857;BME280;62742;52.136;4.500;2023-12-07T00:58:44;102050.66;;;0.06;100.00
72857;BME280;62742;52.136;4.500;2023-12-07T01:01:10;102051.66;;;0.09;100.00
72857;BME280;62742;52.136;4.500;2023-12-07T01:03:37;102050.72;;;0.07;100.00
72857;BME280;62742;52.136;4.500;2023-12-07T01:06:07;102056.69;;;0.06;100.00
72857;BME280;62742;52.136;4.500;2023-12-07T01:08:34;102054.03;;;0.05;100.00
72857;BME280;62742;52.136;4.500;2023-12-07T01:11:00;102054.88;;;0.04;100.00
72857;BME280;62742;52.136;4.500;2023-12-07T01:13:27;102050.34;;;-0.01;100.00
72857;BME280;62742;52.136;4.500;2023-12-07T01:15:53;102051.38;;;0.03;100.00
72857;BME280;62742;52.136;4.500;2023-12-07T01:18:20;102054.50;;;-0.04;100.00
72857;BME280;62742;52.136;4.500;2023-12-07T01:20:46;102061.44;;;-0.03;100.00
72857;BME280;62742;52.136;4.500;2023-12-07T01:23:14;102060.91;;;0.04;100.00
72857;BME280;62742;52.136;4.500;2023-12-07T01:25:41;102058.56;;;0.28;100.00
72857;BME280;62742;52.136;4.500;2023-12-07T01:28:07;102063.91;;;0.13;100.00
72857;BME280;62742;52.136;4.500;2023-12-07T01:30:33;102062.81;;;0.08;100.00
72857;BME280;62742;52.136;4.500;2023-12-07T01:33:00;102064.22;;;0.02;100.00
72857;BME280;62742;52.136;4.500;2023-12-07T01:35:26;102056.06;;;0.12;100.00
72857;BME280;62742;52.136;4.500;2023-12-07T01:37:53;102065.09;;;0.20;100.00
72857;BME280;62742;52.136;4.500;2023-12-07T01:40:19;102055.59;;;0.39;100.00
72857;BME280;62742;52.136;4.500;2023-12-07T01:42:50;102050.13;;;0.32;100.00
72857;BME280;62742;52.136;4.500;2023-12-07T01:45:17;102051.06;;;0.15;100.00
72857;BME280;62742;52.136;4.500;2023-12-07T01:47:46;102050.78;;;0.09;100.00
72857;BME280;62742;52.136;4.500;2023-12-07T01:50:15;102053.88;;;0.02;100.00
72857;BME280;62742;52.136;4.500;2023-12-07T01:52:47;102052.34;;;0.05;100.00
72857;BME280;62742;52.136;4.500;2023-12-07T01:55:15;102051.34;;;0.21;100.00
72857;BME280;62742;52.136;4.500;2023-12-07T01:57:44;102050.72;;;0.45;100.00
72857;BME280;62742;52.136;4.500;2023-12-07T02:00:12;102050.47;;;0.21;100.00
72857;BME280;62742;52.136;4.500;2023-12-07T02:02:40;102059.50;;;0.11;100.00
72857;BME280;62742;52.136;4.500;2023-12-07T02:05:07;102051.66;;;0.09;100.00
72857;BME280;62742;52.136;4.500;2023-12-07T02:07:34;102054.41;;;0.12;100.00
72857;BME280;62742;52.136;4.500;2023-12-07T02:10:00;102047.91;;;0.21;100.00
72857;BME280;62742;52.136;4.500;2023-12-07T02:12:27;102050.59;;;0.24;100.00
72857;BME280;62742;52.136;4.500;2023-12-07T02:14:56;102054.03;;;0.23;100.00
72857;BME280;62742;52.136;4.500;2023-12-07T02:17:33;102054.28;;;0.29;100.00
72857;BME280;62742;52.136;4.500;2023-12-07T02:20:29;102046.41;;;0.45;100.00
72857;BME280;62742;52.136;4.500;2023-12-07T02:23:07;102052.72;;;0.32;100.00
72857;BME280;62742;52.136;4.500;2023-12-07T02:25:44;102051.03;;;0.33;100.00
72857;BME280;62742;52.136;4.500;2023-12-07T02:28:17;102050.34;;;0.17;100.00
72857;BME280;62742;52.136;4.500;2023-12-07T02:30:44;102053.66;;;0.15;100.00
72857;BME280;62742;52.136;4.500;2023-12-07T02:33:14;102055.97;;;0.09;100.00
72857;BME280;62742;52.136;4.500;2023-12-07T02:35:42;102055.50;;;-0.01;100.00
72857;BME280;62742;52.136;4.500;2023-12-07T02:38:09;102057.00;;;-0.06;100.00
72857;BME280;62742;52.136;4.500;2023-12-07T02:40:36;102055.97;;;-0.09;100.00
72857;BME280;62742;52.136;4.500;2023-12-07T02:43:05;102054.25;;;-0.09;100.00
72857;BME280;62742;52.136;4.500;2023-12-07T02:45:33;102053.38;;;0.46;100.00
72857;BME280;62742;52.136;4.500;2023-12-07T02:48:00;102048.53;;;0.34;100.00
72857;BME280;62742;52.136;4.500;2023-12-07T02:50:27;102046.50;;;0.09;100.00
72857;BME280;62742;52.136;4.500;2023-12-07T02:52:53;102054.50;;;-0.04;100.00
72857;BME280;62742;52.136;4.500;2023-12-07T02:55:22;102044.59;;;-0.13;100.00
72857;BME280;62742;52.136;4.500;2023-12-07T02:57:49;102049.63;;;-0.16;100.00
72857;BME280;62742;52.136;4.500;2023-12-07T03:00:15;102052.28;;;-0.14;100.00
72857;BME280;62742;52.136;4.500;2023-12-07T03:02:42;102064.88;;;-0.21;100.00
72857;BME280;62742;52.136;4.500;2023-12-07T03:05:08;102058.41;;;-0.30;100.00
72857;BME280;62742;52.136;4.500;2023-12-07T03:07:35;102064.75;;;-0.24;100.00
72857;BME280;62742;52.136;4.500;2023-12-07T03:10:02;102059.94;;;-0.16;100.00
72857;BME280;62742;52.136;4.500;2023-12-07T03:12:29;102068.72;;;-0.12;100.00
72857;BME280;62742;52.136;4.500;2023-12-07T03:14:56;102068.06;;;-0.26;100.00
72857;BME280;62742;52.136;4.500;2023-12-07T03:17:22;102067.84;;;-0.31;100.00
72857;BME280;62742;52.136;4.500;2023-12-07T03:19:49;102062.19;;;-0.24;100.00
72857;BME280;62742;52.136;4.500;2023-12-07T03:22:15;102054.44;;;-0.24;100.00
72857;BME280;62742;52.136;4.500;2023-12-07T03:24:46;102057.44;;;-0.14;100.00
72857;BME280;62742;52.136;4.500;2023-12-07T03:27:15;102056.47;;;0.02;100.00
72857;BME280;62742;52.136;4.500;2023-12-07T03:29:41;102052.94;;;0.37;100.00
72857;BME280;62742;52.136;4.500;2023-12-07T03:32:08;102059.84;;;0.18;100.00
72857;BME280;62742;52.136;4.500;2023-12-07T03:34:34;102049.69;;;-0.14;100.00
72857;BME280;62742;52.136;4.500;2023-12-07T03:37:01;102044.91;;;-0.25;100.00
72857;BME280;62742;52.136;4.500;2023-12-07T03:39:29;102055.22;;;-0.25;100.00
72857;BME280;62742;52.136;4.500;2023-12-07T03:42:00;102051.03;;;-0.23;100.00
72857;BME280;62742;52.136;4.500;2023-12-07T03:44:27;102051.69;;;-0.27;100.00
72857;BME280;62742;52.136;4.500;2023-12-07T03:46:54;102050.81;;;-0.27;100.00
72857;BME280;62742;52.136;4.500;2023-12-07T03:49:21;102057.97;;;-0.22;100.00
72857;BME280;62742;52.136;4.500;2023-12-07T03:51:47;102051.78;;;-0.25;100.00
72857;BME280;62742;52.136;4.500;2023-12-07T03:54:14;102047.19;;;0.05;100.00
72857;BME280;62742;52.136;4.500;2023-12-07T03:56:40;102050.50;;;-0.15;100.00
72857;BME280;62742;52.136;4.500;2023-12-07T03:59:07;102045.47;;;-0.12;100.00
72857;BME280;62742;52.136;4.500;2023-12-07T04:01:33;102045.31;;;-0.15;100.00
72857;BME280;62742;52.136;4.500;2023-12-07T04:03:59;102053.44;;;-0.26;100.00
72857;BME280;62742;52.136;4.500;2023-12-07T04:06:26;102045.50;;;-0.30;100.00
72857;BME280;62742;52.136;4.500;2023-12-07T04:08:53;102056.63;;;-0.31;100.00
72857;BME280;62742;52.136;4.500;2023-12-07T04:11:20;102057.44;;;-0.14;100.00
72857;BME280;62742;52.136;4.500;2023-12-07T04:13:47;102043.72;;;-0.13;100.00
72857;BME280;62742;52.136;4.500;2023-12-07T04:16:13;102044.94;;;-0.05;100.00
72857;BME280;62742;52.136;4.500;2023-12-07T04:18:41;102045.66;;;-0.27;100.00
72857;BME280;62742;52.136;4.500;2023-12-07T04:21:08;102039.16;;;-0.37;100.00
72857;BME280;62742;52.136;4.500;2023-12-07T04:23:34;102045.94;;;-0.21;100.00
72857;BME280;62742;52.136;4.500;2023-12-07T04:26:01;102047.22;;;0.07;100.00
72857;BME280;62742;52.136;4.500;2023-12-07T04:28:27;102046.44;;;-0.10;100.00
72857;BME280;62742;52.136;4.500;2023-12-07T04:30:54;102045.06;;;-0.22;100.00
72857;BME280;62742;52.136;4.500;2023-12-07T04:33:20;102041.06;;;-0.15;100.00
72857;BME280;62742;52.136;4.500;2023-12-07T04:35:47;102036.19;;;-0.27;100.00
72857;BME280;62742;52.136;4.500;2023-12-07T04:38:13;102033.13;;;-0.38;100.00
72857;BME280;62742;52.136;4.500;2023-12-07T04:40:40;102032.06;;;-0.41;100.00
72857;BME280;62742;52.136;4.500;2023-12-07T04:43:07;102031.19;;;-0.24;100.00
72857;BME280;62742;52.136;4.500;2023-12-07T04:45:34;102031.25;;;-0.40;100.00
72857;BME280;62742;52.136;4.500;2023-12-07T04:48:00;102033.31;;;-0.51;100.00
72857;BME280;62742;52.136;4.500;2023-12-07T04:50:26;102034.28;;;-0.49;100.00
72857;BME280;62742;52.136;4.500;2023-12-07T04:52:53;102040.03;;;-0.36;100.00
72857;BME280;62742;52.136;4.500;2023-12-07T04:55:20;102040.47;;;-0.45;100.00
72857;BME280;62742;52.136;4.500;2023-12-07T04:57:47;102044.97;;;-0.41;100.00
72857;BME280;62742;52.136;4.500;2023-12-07T05:00:13;102040.31;;;-0.48;100.00
72857;BME280;62742;52.136;4.500;2023-12-07T05:02:40;102047.25;;;-0.47;100.00
72857;BME280;62742;52.136;4.500;2023-12-07T05:05:06;102049.75;;;-0.49;100.00
